Ash Ridge, Ohio
Current Conditions -  °F | °C
As of 2:35 AM on Friday 31 Oct 2014 (Local Time) from KFGX Reporting Station
Broken Clouds Broken Clouds  
Wind Chill: 40°   Ceiling: 12000
Heat Index: 40°   Visibility: 10mi
Dew Point: 36°   Wind: 3mph
Humidity: 83%   Direction: 190°S
Pressure: 30.04"   Gusts: NA
Location:  38.8698°N, 83.9081°W
Report Text: KFGX 310635Z AUTO 19003KT 10SM SCT100 BKN120 05/02 A3004 RMK AO2 T00460020
Loading
Personal Weather Stations






























Interactive Weather Map
Tropical Storm Tracking
New forecast layout! Learn more

10-Day Weather Forecast

Advertisements
Track Severe Weather on mobile